createdAt,value
2018-11-20T00:29:40.255Z,95748.78
2018-11-20T00:32:09.062Z,95748.78
2018-11-20T00:34:38.553Z,95718.73
2018-11-20T00:37:07.617Z,95718.73
2018-11-20T00:39:36.205Z,95724.57
2018-11-20T00:42:04.743Z,95725.06
2018-11-20T00:44:33.223Z,95731.18
2018-11-20T00:47:01.948Z,95736.49
2018-11-20T00:49:30.630Z,95731.61
2018-11-20T00:51:59.138Z,95738.28
2018-11-20T00:54:27.487Z,95772.20
2018-11-20T00:56:56.017Z,95751.30
2018-11-20T00:59:24.356Z,95787.00
2018-11-20T01:02:00.789Z,95787.00
2018-11-20T01:04:39.223Z,95781.76
2018-11-20T01:07:09.049Z,95781.76
2018-11-20T01:09:37.492Z,95787.13
2018-11-20T01:12:05.915Z,95787.39
2018-11-20T01:14:34.337Z,95792.14
2018-11-20T01:17:03.047Z,95803.03
2018-11-20T01:19:36.417Z,95802.47
2018-11-20T01:22:22.130Z,95809.97
2018-11-20T01:24:51.253Z,95809.67
2018-11-20T01:27:19.917Z,95808.63
2018-11-20T01:29:52.038Z,95808.63
2018-11-20T01:32:21.537Z,95795.63
2018-11-20T01:34:53.747Z,95795.63
2018-11-20T01:37:31.108Z,95806.86
2018-11-20T01:40:00.060Z,95804.19
2018-11-20T01:42:33.692Z,95810.87
2018-11-20T01:45:07.327Z,95822.61
2018-11-20T01:47:37.337Z,95824.75
2018-11-20T01:50:09.347Z,95833.13
2018-11-20T01:52:49.520Z,95843.23
2018-11-20T01:55:26.839Z,95844.31
2018-11-20T01:58:02.309Z,95841.89
2018-11-20T02:00:31.664Z,95840.59
2018-11-20T02:03:11.015Z,95833.13
2018-11-20T02:05:45.163Z,95834.72
2018-11-20T02:08:22.495Z,95847.30
2018-11-20T02:10:55.733Z,95848.29
2018-11-20T02:13:37.207Z,95844.73
2018-11-20T02:16:13.747Z,95848.22
2018-11-20T02:18:45.715Z,95847.64
2018-11-20T02:21:16.222Z,95849.22
2018-11-20T02:23:54.420Z,95853.25
2018-11-20T02:26:27.583Z,95844.91
2018-11-20T02:28:59.820Z,95844.63
2018-11-20T02:31:30.923Z,95848.92
2018-11-20T02:33:59.391Z,95842.50
2018-11-20T02:36:35.122Z,95842.83
2018-11-20T02:39:13.127Z,95834.28
2018-11-20T02:41:43.763Z,95833.73
2018-11-20T02:44:16.831Z,95831.03
2018-11-20T02:46:45.911Z,95833.13
2018-11-20T02:49:14.245Z,95830.97
2018-11-20T02:51:54.664Z,95834.45
2018-11-20T02:54:26.257Z,95835.27
2018-11-20T02:56:54.815Z,95828.03
2018-11-20T02:59:32.791Z,95824.58
2018-11-20T03:02:21.177Z,95825.13
2018-11-20T03:04:50.130Z,95824.87
2018-11-20T03:07:19.130Z,95834.20
2018-11-20T03:09:47.605Z,95843.84
2018-11-20T03:12:16.684Z,95825.36
2018-11-20T03:14:51.533Z,95827.22
2018-11-20T03:17:23.806Z,95821.82
2018-11-20T03:19:57.726Z,95819.64
2018-11-20T03:22:27.718Z,95821.47
2018-11-20T03:25:06.768Z,95826.52
2018-11-20T03:27:39.683Z,95827.30
2018-11-20T03:30:19.821Z,95837.44
2018-11-20T03:33:05.056Z,95837.73
2018-11-20T03:38:32.013Z,95846.33
2018-11-20T03:41:00.635Z,95856.47
2018-11-20T03:43:29.135Z,95854.05
2018-11-20T03:46:10.078Z,95857.02
2018-11-20T03:48:42.975Z,95846.33
2018-11-20T03:51:11.826Z,95838.34
2018-11-20T03:53:50.493Z,95846.63
2018-11-20T03:56:24.225Z,95861.73
2018-11-20T03:58:53.265Z,95872.41
2018-11-20T04:01:21.709Z,95864.13
2018-11-20T04:03:55.485Z,95863.86
2018-11-20T04:06:29.060Z,95861.16
2018-11-20T04:09:04.189Z,95850.70
2018-11-20T04:11:57.667Z,95856.33
2018-11-20T04:14:37.984Z,95852.62
2018-11-20T04:17:06.344Z,95848.09
2018-11-20T04:19:36.290Z,95848.66
2018-11-20T04:22:05.281Z,95845.70
2018-11-20T04:24:56.935Z,95852.94
2018-11-20T04:27:53.938Z,95861.02
2018-11-20T04:30:56.378Z,95861.02
2018-11-20T04:33:35.115Z,95866.88
2018-11-20T04:36:03.980Z,95859.91
2018-11-20T04:38:32.290Z,95874.88
2018-11-20T04:41:01.864Z,95892.84
2018-11-20T04:43:30.928Z,95903.62
2018-11-20T04:46:01.189Z,95905.53
2018-11-20T04:48:37.606Z,95914.29
2018-11-20T04:51:10.818Z,95910.51
2018-11-20T04:53:51.268Z,95903.27
2018-11-20T04:56:21.730Z,95913.67
2018-11-20T04:58:50.315Z,95909.66
2018-11-20T05:01:20.876Z,95910.51
2018-11-20T05:03:49.730Z,95899.29
2018-11-20T05:06:18.358Z,95906.50
2018-11-20T05:08:48.586Z,95912.10
2018-11-20T05:11:15.980Z,95916.41
2018-11-20T05:13:55.115Z,95913.73
2018-11-20T05:16:26.515Z,95917.55
2018-11-20T05:18:55.158Z,95920.16
2018-11-20T05:21:23.734Z,95919.08
2018-11-20T05:23:57.103Z,95927.92
2018-11-20T05:26:35.398Z,95923.13
2018-11-20T05:29:06.998Z,95927.95
2018-11-20T05:31:43.673Z,95935.68
2018-11-20T05:34:09.403Z,95932.98
2018-11-20T05:36:43.267Z,95939.66
2018-11-20T05:39:15.295Z,95950.62
2018-11-20T05:41:43.660Z,95943.11
2018-11-20T05:44:12.438Z,95948.20
2018-11-20T05:46:44.914Z,95949.87
2018-11-20T05:49:13.283Z,95949.61
2018-11-20T05:51:56.609Z,95945.30
2018-11-20T05:54:26.053Z,95954.66
2018-11-20T05:56:54.383Z,95953.59
2018-11-20T05:59:22.963Z,95954.66
2018-11-20T06:01:51.320Z,95956.00
2018-11-20T06:04:19.638Z,95951.44
2018-11-20T06:06:47.990Z,95952.77
2018-11-20T06:09:17.608Z,95956.62
2018-11-20T06:11:46.022Z,95964.58
2018-11-20T06:14:14.265Z,95962.16
2018-11-20T06:16:43.041Z,95959.75
2018-11-20T06:19:11.531Z,95969.20
2018-11-20T06:21:39.762Z,95970.45
2018-11-20T06:24:08.052Z,95971.75
2018-11-20T06:26:36.444Z,95972.83
2018-11-20T06:29:04.777Z,95985.55
2018-11-20T06:31:32.995Z,95986.27
2018-11-20T06:34:01.798Z,95987.02
2018-11-20T06:36:30.040Z,95986.75
2018-11-20T06:39:12.241Z,95995.30
2018-11-20T06:42:07.955Z,95991.80
2018-11-20T06:44:55.812Z,95998.27
2018-11-20T06:47:28.678Z,96000.38
2018-11-20T06:49:57.493Z,96005.50
2018-11-20T06:52:27.524Z,96008.88
2018-11-20T06:54:57.403Z,96005.84
2018-11-20T06:57:26.469Z,96012.27
2018-11-20T06:59:55.205Z,96007.27
2018-11-20T07:02:24.528Z,96003.20
2018-11-20T07:04:53.664Z,96003.45
2018-11-20T07:07:22.554Z,96006.23
2018-11-20T07:09:50.808Z,96008.88
2018-11-20T07:12:19.356Z,96015.42
2018-11-20T07:14:47.936Z,96008.88
2018-11-20T07:17:18.626Z,96023.06
2018-11-20T07:19:47.725Z,96019.87
2018-11-20T07:22:16.378Z,96026.03
2018-11-20T07:24:45.180Z,96027.53
2018-11-20T07:27:14.585Z,96026.75
2018-11-20T07:29:43.070Z,96030.17
2018-11-20T07:32:16.833Z,96033.96
2018-11-20T07:34:42.913Z,96031.80
2018-11-20T07:37:11.486Z,96030.98
2018-11-20T07:39:40.572Z,96023.81
2018-11-20T07:42:09.350Z,96032.88
2018-11-20T07:44:38.978Z,96025.41
2018-11-20T07:47:08.012Z,96028.09
2018-11-20T07:49:37.146Z,96020.36
2018-11-20T07:52:05.803Z,96018.33
2018-11-20T07:54:34.378Z,96033.60
2018-11-20T07:57:03.366Z,96027.41
2018-11-20T07:59:32.480Z,96021.82
2018-11-20T08:02:01.755Z,96013.36
2018-11-20T08:04:48.584Z,96034.45
2018-11-20T08:07:23.987Z,96036.02
2018-11-20T08:09:53.366Z,96026.27
2018-11-20T08:12:22.307Z,96027.64
2018-11-20T08:14:50.901Z,96036.11
2018-11-20T08:17:19.435Z,96054.27
2018-11-20T08:19:47.805Z,96055.80
2018-11-20T08:22:16.345Z,96059.25
2018-11-20T08:24:44.745Z,96060.00
2018-11-20T08:27:13.406Z,96067.05
2018-11-20T08:29:47.075Z,96073.78
2018-11-20T08:32:19.877Z,96079.62
2018-11-20T08:34:52.003Z,96089.28
2018-11-20T08:37:20.731Z,96102.33
2018-11-20T08:39:57.853Z,96103.15
2018-11-20T08:42:36.760Z,96101.77
2018-11-20T08:45:06.420Z,96109.31
2018-11-20T08:47:36.919Z,96115.75
2018-11-20T08:50:05.250Z,96129.42
2018-11-20T08:52:33.720Z,96130.47
2018-11-20T08:55:02.118Z,96132.44
2018-11-20T08:57:35.549Z,96131.32
2018-11-20T09:00:13.073Z,96131.98
2018-11-20T09:02:43.573Z,96136.27
2018-11-20T09:05:11.953Z,96129.77
2018-11-20T09:07:40.202Z,96138.34
2018-11-20T09:10:08.725Z,96139.76
2018-11-20T09:12:36.862Z,96139.76
2018-11-20T09:15:05.730Z,96140.23
2018-11-20T09:17:34.150Z,96136.78
2018-11-20T09:20:02.594Z,96134.41
2018-11-20T09:22:30.773Z,96142.40
2018-11-20T09:24:59.086Z,96151.50
2018-11-20T09:27:27.522Z,96151.50
2018-11-20T09:29:55.753Z,96150.95
2018-11-20T09:32:24.126Z,96151.47
2018-11-20T09:34:52.967Z,96141.84
2018-11-20T09:37:21.725Z,96141.91
2018-11-20T09:39:50.015Z,96144.14
2018-11-20T09:42:18.287Z,96146.78
2018-11-20T09:45:08.028Z,96144.72
2018-11-20T09:47:38.793Z,96139.86
2018-11-20T09:50:07.060Z,96135.58
2018-11-20T09:52:35.478Z,96135.81
2018-11-20T09:55:04.384Z,96133.81
2018-11-20T09:57:32.732Z,96139.95
2018-11-20T10:00:01.196Z,96138.62
2018-11-20T10:02:29.520Z,96139.11
2018-11-20T10:04:58.371Z,96151.16
2018-11-20T10:07:26.649Z,96140.97
2018-11-20T10:09:55.062Z,96140.97
2018-11-20T10:12:23.550Z,96135.64
2018-11-20T10:14:52.088Z,96135.64
2018-11-20T10:17:20.650Z,96134.63
2018-11-20T10:19:49.068Z,96126.56
2018-11-20T10:22:17.545Z,96125.52
2018-11-20T10:24:47.342Z,96129.56
2018-11-20T10:27:15.540Z,96134.92
2018-11-20T10:29:43.953Z,96126.03
2018-11-20T10:32:12.338Z,96127.14
2018-11-20T10:34:40.745Z,96117.03
2018-11-20T10:37:08.940Z,96113.25
2018-11-20T10:39:37.325Z,96116.17
2018-11-20T10:42:06.747Z,96114.56
2018-11-20T10:44:35.240Z,96114.56
2018-11-20T10:47:03.785Z,96112.17
2018-11-20T10:49:32.151Z,96103.06
2018-11-20T10:52:00.603Z,96135.55
2018-11-20T10:54:28.950Z,96101.67
2018-11-20T10:56:57.218Z,96104.88
2018-11-20T10:59:25.621Z,96112.91
2018-11-20T11:01:54.118Z,96112.91
2018-11-20T11:04:22.886Z,96113.17
2018-11-20T11:06:51.645Z,96100.36
2018-11-20T11:09:19.808Z,96100.36
2018-11-20T11:11:48.431Z,96087.75
2018-11-20T11:14:17.024Z,96076.99
2018-11-20T11:16:45.890Z,96076.99
2018-11-20T11:19:14.785Z,96095.00
2018-11-20T11:21:43.283Z,96095.23
2018-11-20T11:24:11.804Z,96083.45
2018-11-20T11:26:40.130Z,96078.33
2018-11-20T11:29:08.969Z,96088.55
2018-11-20T11:31:37.360Z,96080.25
2018-11-20T11:34:05.645Z,96079.55
2018-11-20T11:36:34.317Z,96089.06
2018-11-20T11:39:02.823Z,96089.06
2018-11-20T11:41:31.386Z,96084.52
2018-11-20T11:43:59.713Z,96044.85
2018-11-20T11:46:28.035Z,96069.84
2018-11-20T11:48:56.725Z,96081.37
2018-11-20T11:51:25.671Z,96095.77
2018-11-20T11:53:53.894Z,96095.77
2018-11-20T11:56:22.620Z,96103.27
2018-11-20T11:58:51.374Z,96114.33
2018-11-20T12:01:20.256Z,96114.33
2018-11-20T12:03:48.928Z,96118.03
2018-11-20T12:06:17.384Z,96105.98
2018-11-20T12:08:45.664Z,96113.78
2018-11-20T12:11:14.188Z,96112.44
2018-11-20T12:13:43.076Z,96118.91
2018-11-20T12:16:11.549Z,96110.05
2018-11-20T12:18:39.808Z,96110.05
2018-11-20T12:21:08.209Z,96102.28
2018-11-20T12:23:36.556Z,96095.27
2018-11-20T12:26:05.370Z,96087.78
2018-11-20T12:28:34.716Z,96095.02
2018-11-20T12:31:03.872Z,96077.86
2018-11-20T12:33:32.772Z,96090.00
2018-11-20T12:36:01.122Z,96087.83
2018-11-20T12:38:30.647Z,96090.20
2018-11-20T12:40:58.942Z,96085.70
2018-11-20T12:43:27.243Z,96070.91
2018-11-20T12:45:55.835Z,96064.50
2018-11-20T12:48:23.874Z,96071.77
2018-11-20T12:50:52.346Z,96078.42
2018-11-20T12:53:21.448Z,96069.05
2018-11-20T12:55:49.275Z,96068.50
2018-11-20T12:58:19.107Z,96068.03
2018-11-20T13:00:47.984Z,96062.33
2018-11-20T13:03:16.396Z,96062.33
2018-11-20T13:05:46.174Z,96067.41
2018-11-20T13:08:14.789Z,96044.92
2018-11-20T13:10:43.350Z,96044.92
2018-11-20T13:13:11.667Z,96040.35
2018-11-20T13:15:40.065Z,96024.02
2018-11-20T13:18:09.197Z,96032.08
2018-11-20T13:20:37.257Z,96032.08
2018-11-20T13:23:05.944Z,96032.36
2018-11-20T13:25:34.334Z,96032.36
2018-11-20T13:28:02.817Z,95994.80
2018-11-20T13:30:31.142Z,95994.80
2018-11-20T13:33:02.550Z,95995.89
2018-11-20T13:35:30.901Z,95990.84
2018-11-20T13:38:00.886Z,95990.84
2018-11-20T13:40:39.328Z,95980.61
2018-11-20T13:43:07.990Z,95961.59
2018-11-20T13:45:36.607Z,95984.91
2018-11-20T13:48:05.191Z,95984.91
2018-11-20T13:50:33.567Z,95992.38
2018-11-20T13:53:02.052Z,95992.38
2018-11-20T13:55:31.939Z,96007.17
2018-11-20T13:57:59.317Z,96052.19
2018-11-20T14:00:27.697Z,96044.43
2018-11-20T14:02:56.596Z,96016.84
2018-11-20T14:05:25.179Z,96010.15
2018-11-20T14:07:53.666Z,96032.64
2018-11-20T14:10:22.126Z,96036.11
2018-11-20T14:12:50.467Z,96044.68
2018-11-20T14:15:19.846Z,96055.94
2018-11-20T14:17:48.617Z,96055.94
2018-11-20T14:20:17.012Z,96069.14
2018-11-20T14:22:45.157Z,96068.28
2018-11-20T14:25:14.551Z,96068.28
2018-11-20T14:27:42.110Z,96066.02
2018-11-20T14:30:12.414Z,96089.06
2018-11-20T14:32:41.223Z,96089.06
2018-11-20T14:35:09.462Z,96082.30
2018-11-20T14:37:37.727Z,96079.62
2018-11-20T14:40:06.175Z,96092.31
2018-11-20T14:42:34.639Z,96092.31
2018-11-20T14:45:03.011Z,96094.66
2018-11-20T14:47:31.906Z,96086.89
2018-11-20T14:50:00.347Z,96087.94
2018-11-20T14:52:28.829Z,96098.16
2018-11-20T14:54:57.139Z,96096.80
2018-11-20T14:57:25.412Z,96097.32
2018-11-20T14:59:53.682Z,96097.32
2018-11-20T15:02:21.980Z,96105.39
2018-11-20T15:04:50.394Z,96111.01
2018-11-20T15:07:18.904Z,96111.01
2018-11-20T15:09:47.662Z,96114.81
2018-11-20T15:12:16.012Z,96114.51
2018-11-20T15:14:44.779Z,96113.37
2018-11-20T15:17:13.111Z,96107.82
2018-11-20T15:19:41.380Z,96105.67
2018-11-20T15:22:10.252Z,96100.53
2018-11-20T15:24:38.609Z,96117.45
2018-11-20T15:27:06.861Z,96116.11
2018-11-20T15:29:35.160Z,96121.75
2018-11-20T15:32:03.593Z,96115.84
2018-11-20T15:34:32.327Z,96112.59
2018-11-20T15:37:00.694Z,96112.59
2018-11-20T15:39:29.040Z,96125.46
2018-11-20T15:41:57.769Z,96123.36
2018-11-20T15:44:26.290Z,96136.48
2018-11-20T15:46:54.977Z,96139.77
2018-11-20T15:49:23.741Z,96148.84
2018-11-20T15:51:53.031Z,96152.33
2018-11-20T15:54:21.434Z,96152.33
2018-11-20T15:56:49.724Z,96153.20
2018-11-20T15:59:18.463Z,96159.56
2018-11-20T16:01:46.778Z,96156.36
2018-11-20T16:04:15.075Z,96160.95
2018-11-20T16:06:43.504Z,96165.45
2018-11-20T16:09:12.137Z,96163.80
2018-11-20T16:11:41.167Z,96170.78
2018-11-20T16:14:09.465Z,96178.56
2018-11-20T16:16:37.772Z,96175.59
2018-11-20T16:19:07.997Z,96183.34
2018-11-20T16:21:36.747Z,96178.54
2018-11-20T16:24:13.567Z,96181.91
2018-11-20T16:26:41.899Z,96196.54
2018-11-20T16:29:11.051Z,96201.55
2018-11-20T16:31:39.689Z,96201.55
2018-11-20T16:34:08.545Z,96202.13
2018-11-20T16:36:37.262Z,96207.47
2018-11-20T16:39:05.725Z,96209.94
2018-11-20T16:41:42.288Z,96205.66
2018-11-20T16:44:28.074Z,96212.30
2018-11-20T16:46:56.826Z,96218.73
2018-11-20T16:49:26.882Z,96208.77
2018-11-20T16:52:07.229Z,96208.77
2018-11-20T16:54:37.732Z,96212.80
2018-11-20T16:57:15.044Z,96226.25
2018-11-20T16:59:44.874Z,96215.77
2018-11-20T17:02:13.276Z,96235.05
2018-11-20T17:04:42.162Z,96246.62
2018-11-20T17:07:11.017Z,96246.62
2018-11-20T17:09:39.792Z,96247.08
2018-11-20T17:12:09.157Z,96251.91
2018-11-20T17:14:47.298Z,96268.48
2018-11-20T17:17:18.134Z,96268.48
2018-11-20T17:19:47.155Z,96267.59
2018-11-20T17:22:15.652Z,96282.89
2018-11-20T17:24:48.340Z,96282.89
2018-11-20T17:27:13.694Z,96285.00
2018-11-20T17:29:42.056Z,96295.86
2018-11-20T17:32:10.528Z,96310.85
2018-11-20T17:34:42.136Z,96319.50
2018-11-20T17:37:07.869Z,96319.50
2018-11-20T17:39:36.152Z,96326.75
2018-11-20T17:42:04.503Z,96332.89
2018-11-20T17:44:34.944Z,96332.89
2018-11-20T17:47:03.327Z,96343.61
2018-11-20T17:49:31.769Z,96343.61
2018-11-20T17:52:00.226Z,96346.84
2018-11-20T17:54:28.638Z,96352.59
2018-11-20T17:56:57.033Z,96348.83
2018-11-20T17:59:25.500Z,96352.02
2018-11-20T18:01:53.874Z,96359.63
2018-11-20T18:04:24.165Z,96356.05
2018-11-20T18:07:01.002Z,96373.33
2018-11-20T18:09:35.997Z,96367.66
2018-11-20T18:12:04.338Z,96372.77
2018-11-20T18:14:33.182Z,96372.77
2018-11-20T18:17:02.340Z,96382.95
2018-11-20T18:19:30.860Z,96379.11
2018-11-20T18:21:59.250Z,96385.33
2018-11-20T18:24:28.238Z,96389.87
2018-11-20T18:27:01.032Z,96389.87
2018-11-20T18:29:31.581Z,96397.33
2018-11-20T18:31:59.859Z,96394.16
2018-11-20T18:34:30.149Z,96399.20
2018-11-20T18:36:58.668Z,96403.06
2018-11-20T18:39:27.360Z,96416.09
2018-11-20T18:41:55.693Z,96414.14
2018-11-20T18:44:24.600Z,96414.14
2018-11-20T18:46:53.110Z,96418.16
2018-11-20T18:49:21.937Z,96420.51
2018-11-20T18:51:50.769Z,96419.74
2018-11-20T18:54:18.987Z,96424.80
2018-11-20T18:56:47.501Z,96429.11
2018-11-20T18:59:16.384Z,96441.44
2018-11-20T19:01:44.693Z,96441.44
2018-11-20T19:04:13.049Z,96441.21
2018-11-20T19:06:42.451Z,96443.33
2018-11-20T19:09:10.914Z,96448.06
2018-11-20T19:11:39.612Z,96448.39
2018-11-20T19:14:08.233Z,96457.69
2018-11-20T19:16:37.376Z,96463.50
2018-11-20T19:19:06.168Z,96470.05
2018-11-20T19:21:50.464Z,96473.70
2018-11-20T19:24:23.323Z,96484.42
2018-11-20T19:27:09.426Z,96490.72
2018-11-20T19:29:38.047Z,96490.72
2018-11-20T19:32:06.862Z,96486.41
2018-11-20T19:34:35.348Z,96495.00
2018-11-20T19:37:04.229Z,96495.00
2018-11-20T19:39:32.690Z,96496.83
2018-11-20T19:42:01.228Z,96500.16
2018-11-20T19:44:29.498Z,96499.08
2018-11-20T19:47:12.234Z,96507.30
2018-11-20T19:49:56.085Z,96507.30
2018-11-20T19:52:36.763Z,96514.17
2018-11-20T19:57:55.789Z,96517.70
2018-11-20T20:00:24.085Z,96525.86
2018-11-20T20:03:05.307Z,96525.86
2018-11-20T20:05:38.223Z,96536.18
2018-11-20T20:08:06.866Z,96536.18
2018-11-20T20:10:35.501Z,96524.31
2018-11-20T20:13:04.309Z,96525.92
2018-11-20T20:15:33.169Z,96532.69
2018-11-20T20:18:01.728Z,96536.11
2018-11-20T20:20:30.839Z,96540.72
2018-11-20T20:23:09.545Z,96537.66
2018-11-20T20:25:38.848Z,96540.13
2018-11-20T20:28:07.180Z,96541.35
2018-11-20T20:30:36.351Z,96543.26
2018-11-20T20:33:05.235Z,96548.67
2018-11-20T20:35:33.709Z,96561.10
2018-11-20T20:38:04.134Z,96561.10
2018-11-20T20:40:33.044Z,96562.71
2018-11-20T20:43:05.019Z,96573.86
2018-11-20T20:45:31.247Z,96573.86
2018-11-20T20:47:59.725Z,96577.83
2018-11-20T20:50:28.700Z,96577.83
2018-11-20T20:52:57.644Z,96588.02
2018-11-20T20:55:26.218Z,96587.20
2018-11-20T20:58:04.730Z,96587.20
2018-11-20T21:00:35.203Z,96597.02
2018-11-20T21:03:04.218Z,96601.54
2018-11-20T21:05:32.538Z,96606.30
2018-11-20T21:08:08.772Z,96608.23
2018-11-20T21:10:40.227Z,96613.33
2018-11-20T21:13:10.522Z,96624.20
2018-11-20T21:15:42.125Z,96624.20
2018-11-20T21:18:33.390Z,96625.61
2018-11-20T21:21:03.010Z,96625.61
2018-11-20T21:23:33.015Z,96639.53
2018-11-20T21:26:01.324Z,96639.53
2018-11-20T21:28:31.146Z,96634.38
2018-11-20T21:31:06.107Z,96640.03
2018-11-20T21:33:36.073Z,96638.02
2018-11-20T21:36:20.928Z,96638.02
2018-11-20T21:39:01.745Z,96644.14
2018-11-20T21:41:39.827Z,96648.28
2018-11-20T21:44:16.167Z,96642.55
2018-11-20T21:47:01.393Z,96641.44
2018-11-20T21:49:32.060Z,96643.52
2018-11-20T21:51:59.852Z,96643.52
2018-11-20T21:54:43.890Z,96655.95
2018-11-20T21:57:14.321Z,96669.20
2018-11-20T21:59:47.350Z,96678.80
2018-11-20T22:02:17.025Z,96683.47
2018-11-20T22:04:46.803Z,96686.20
2018-11-20T22:07:15.451Z,96688.73
2018-11-20T22:09:43.883Z,96694.51
2018-11-20T22:12:12.602Z,96692.79
2018-11-20T22:14:41.538Z,96692.63
2018-11-20T22:17:10.319Z,96701.67
2018-11-20T22:19:39.827Z,96701.67
2018-11-20T22:22:08.321Z,96703.17
2018-11-20T22:24:37.195Z,96708.47
2018-11-20T22:27:08.423Z,96707.22
2018-11-20T22:29:54.097Z,96704.53
2018-11-20T22:32:27.425Z,96709.13
2018-11-20T22:34:55.834Z,96711.09
2018-11-20T22:37:24.795Z,96711.09
2018-11-20T22:39:53.574Z,96716.89
2018-11-20T22:42:22.060Z,96716.95
2018-11-20T22:44:51.057Z,96720.45
2018-11-20T22:47:19.627Z,96720.22
2018-11-20T22:49:48.237Z,96719.77
2018-11-20T22:52:16.704Z,96720.62
2018-11-20T22:54:45.686Z,96720.56
2018-11-20T22:57:21.624Z,96718.59
2018-11-20T23:00:18.947Z,96718.64
2018-11-20T23:02:52.328Z,96724.16
2018-11-20T23:05:20.346Z,96722.44
2018-11-20T23:07:48.952Z,96726.45
2018-11-20T23:10:18.352Z,96725.63
2018-11-20T23:12:47.165Z,96725.63
2018-11-20T23:15:21.502Z,96725.63
2018-11-20T23:17:57.955Z,96731.40
2018-11-20T23:20:27.090Z,96743.30
2018-11-20T23:22:55.955Z,96750.09
2018-11-20T23:25:25.852Z,96754.94
2018-11-20T23:27:54.206Z,96754.94
2018-11-20T23:30:22.581Z,96755.05
2018-11-20T23:32:52.755Z,96748.67
2018-11-20T23:35:21.175Z,96744.63
2018-11-20T23:37:49.463Z,96745.89
2018-11-20T23:40:18.352Z,96746.59
2018-11-20T23:43:17.604Z,96746.59
2018-11-20T23:45:50.377Z,96760.38
2018-11-20T23:48:19.319Z,96773.88
2018-11-20T23:50:48.492Z,96781.80
2018-11-20T23:53:16.722Z,96778.27
2018-11-20T23:55:47.114Z,96775.29
2018-11-20T23:58:15.595Z,96775.29
